Aérodrome :
LOGIN :

S'inscrire | Disclaimer

   EN    FR    IT 

 










Légende :    VFR   VFR Marginal   IFR   IFR Intensif   IFR Très Intensif
Visi : 
Plafond : 
>= 8 km
>= 3000ft
5 à 8 km
1000 à 3000 ft
1500m à 5 km
500 à 1000 ft
800 à 1500m
200 à 500 ft
< 800m
< 200 ft
Symboles :   Orages  Brouillard  Fortes neiges  Fortes précipitations  Vent > 20 kt
SIGMETs :   Divers  Orages  Givrage  Turbulence  Onde Orograph.  Cendres Volcan.






- Altitude de l'aérodrome : 1079 ft


ETIK - Illesheim Air Base

DERNIER METAR :
  • 012256Z AUTO 22003KT 9999 CLR 12/11 A3025 RMK AO2 SLP245 T01180109 401940118

METARs EXPIRÉS :
  • 011556Z AUTO 16003KT 9999 FEW026 SCT037 18/12 A3017 RMK AO2 SLP213 T01770115
  • 012156Z AUTO 00000KT 9999 CLR 12/11 A3025 RMK AO2 SLP245 T01220111 $
  • 012056Z AUTO 00000KT 9999 CLR 13/11 A3024 RMK AO2 SLP241 T01270111 52016 $

TAF TAF ETIK
Valide du 01 à 22h jusqu'au 03 à 04h UTC


012200Z 0122/0304 22006KT 9999 SCT030 QNH3021INS
BECMG 0205/0206 14006KT 9999 FEW040 QNH3024INS
BECMG 0208/0209 12006KT 9999 SKC QNH3025INS TX25/0214Z TN10/0203Z LAST NO AMDS AFT 0122 NEXT 0506



MET'MAP, la Météo Aéronautique d'un coup d'oeil ! - Copyright ORBIFLY Décembre 2007 - Disclaimer

ORBIFLY MET'MAP TEAM :

Programmation & Développement : Alexandra Zaïnal
Sur une idée originale de : Baudouin d'Aumeries
Soutien technique & logistique : Manuel Goepfert
Assistance : Marc-Olivier Méhu




SOURCES & CREDITS :

   NOAA